EKEB

Esbjerg Airport

Esbjerg, Denmark
METAR EKEB 161020Z AUTO 26004KT 9999NDV SCT034/// 03/01 Q1003
Observed Flight Rules
Dec-16 @ 10:20 UTC (50 minutes ago)
Wind Clouds
260° at 4 knots
  • Scattered at 3,400' AGL
Temperatures Readings
Current 3°C / 37°F
Dewpoint 1°C / 34°F
Humidity 87%
Altimeter 29.62" Hg
Pressure 1003 hPa
Elevation 29
METAR EKEB 161020Z AUTO 26004KT 9999NDV SCT034/// 03/01 Q1003
Observed Flight Rules
Dec-16 @ 10:20 UTC
(50 minutes ago)
Wind
260° at 4 knots
Clouds
  • Scattered at 3,400' AGL
Temperature Dewpoint
3°C / 37°F 1°C / 34°F
Humidity Altimeter Pressure
87% 29.62" Hg 1003 hPa